sensor_id;sensor_type;location;lat;lon;timestamp;P1;durP1;ratioP1;P2;durP2;ratioP2
428;SDS011;201;48.758;9.290;2022-08-18T00:02:11;11.50;;;10.53;;
428;SDS011;201;48.758;9.290;2022-08-18T00:04:39;11.77;;;11.23;;
428;SDS011;201;48.758;9.290;2022-08-18T00:07:10;11.90;;;11.30;;
428;SDS011;201;48.758;9.290;2022-08-18T00:09:41;12.00;;;11.40;;
428;SDS011;201;48.758;9.290;2022-08-18T00:15:09;12.67;;;11.70;;
428;SDS011;201;48.758;9.290;2022-08-18T00:17:37;12.00;;;11.40;;
428;SDS011;201;48.758;9.290;2022-08-18T00:20:04;12.40;;;11.30;;
428;SDS011;201;48.758;9.290;2022-08-18T00:22:33;11.23;;;10.63;;
428;SDS011;201;48.758;9.290;2022-08-18T00:24:59;15.40;;;10.73;;
428;SDS011;201;48.758;9.290;2022-08-18T00:27:25;11.50;;;9.97;;
428;SDS011;201;48.758;9.290;2022-08-18T00:29:57;11.63;;;8.87;;
428;SDS011;201;48.758;9.290;2022-08-18T00:32:26;8.63;;;8.13;;
428;SDS011;201;48.758;9.290;2022-08-18T00:35:03;9.07;;;8.57;;
428;SDS011;201;48.758;9.290;2022-08-18T00:37:31;9.13;;;8.63;;
428;SDS011;201;48.758;9.290;2022-08-18T00:39:57;10.50;;;8.97;;
428;SDS011;201;48.758;9.290;2022-08-18T00:42:25;9.03;;;8.57;;
428;SDS011;201;48.758;9.290;2022-08-18T00:44:52;9.50;;;9.00;;
428;SDS011;201;48.758;9.290;2022-08-18T00:47:18;8.90;;;8.40;;
428;SDS011;201;48.758;9.290;2022-08-18T00:49:44;10.93;;;9.37;;
428;SDS011;201;48.758;9.290;2022-08-18T00:52:13;9.17;;;8.67;;
428;SDS011;201;48.758;9.290;2022-08-18T00:54:40;9.10;;;8.60;;
428;SDS011;201;48.758;9.290;2022-08-18T00:57:08;9.10;;;8.60;;
428;SDS011;201;48.758;9.290;2022-08-18T01:02:04;11.37;;;9.40;;
428;SDS011;201;48.758;9.290;2022-08-18T01:07:22;8.87;;;8.40;;
428;SDS011;201;48.758;9.290;2022-08-18T01:10:06;9.47;;;9.00;;
428;SDS011;201;48.758;9.290;2022-08-18T01:12:32;9.43;;;8.93;;
428;SDS011;201;48.758;9.290;2022-08-18T01:14:58;9.87;;;8.73;;
428;SDS011;201;48.758;9.290;2022-08-18T01:17:24;9.80;;;9.30;;
428;SDS011;201;48.758;9.290;2022-08-18T01:20:10;9.57;;;9.07;;
428;SDS011;201;48.758;9.290;2022-08-18T01:23:05;9.60;;;9.10;;
428;SDS011;201;48.758;9.290;2022-08-18T01:25:39;9.43;;;8.83;;
428;SDS011;201;48.758;9.290;2022-08-18T01:28:24;9.97;;;9.17;;
428;SDS011;201;48.758;9.290;2022-08-18T01:30:52;9.80;;;9.30;;
428;SDS011;201;48.758;9.290;2022-08-18T01:33:24;8.90;;;8.40;;
428;SDS011;201;48.758;9.290;2022-08-18T01:35:51;11.77;;;10.90;;
428;SDS011;201;48.758;9.290;2022-08-18T01:38:18;9.67;;;9.17;;
428;SDS011;201;48.758;9.290;2022-08-18T01:40:45;9.87;;;9.37;;
428;SDS011;201;48.758;9.290;2022-08-18T01:43:12;11.07;;;10.47;;
428;SDS011;201;48.758;9.290;2022-08-18T01:45:38;14.17;;;12.20;;
428;SDS011;201;48.758;9.290;2022-08-18T01:48:05;12.07;;;9.97;;
428;SDS011;201;48.758;9.290;2022-08-18T01:50:31;10.00;;;9.50;;
428;SDS011;201;48.758;9.290;2022-08-18T01:53:00;10.83;;;10.23;;
428;SDS011;201;48.758;9.290;2022-08-18T01:55:29;9.40;;;8.90;;
428;SDS011;201;48.758;9.290;2022-08-18T01:57:56;9.60;;;9.10;;
428;SDS011;201;48.758;9.290;2022-08-18T02:00:21;9.50;;;9.00;;
428;SDS011;201;48.758;9.290;2022-08-18T02:02:48;10.60;;;9.30;;
428;SDS011;201;48.758;9.290;2022-08-18T02:05:16;10.13;;;9.63;;
428;SDS011;201;48.758;9.290;2022-08-18T02:07:46;9.80;;;9.30;;
428;SDS011;201;48.758;9.290;2022-08-18T02:10:11;9.23;;;8.73;;
428;SDS011;201;48.758;9.290;2022-08-18T02:12:38;10.63;;;10.07;;
428;SDS011;201;48.758;9.290;2022-08-18T02:15:04;11.67;;;11.07;;
428;SDS011;201;48.758;9.290;2022-08-18T02:17:39;11.30;;;10.50;;
428;SDS011;201;48.758;9.290;2022-08-18T02:20:05;14.07;;;9.40;;
428;SDS011;201;48.758;9.290;2022-08-18T02:22:32;9.27;;;8.77;;
428;SDS011;201;48.758;9.290;2022-08-18T02:24:58;11.30;;;10.60;;
428;SDS011;201;48.758;9.290;2022-08-18T02:27:25;9.77;;;9.30;;
428;SDS011;201;48.758;9.290;2022-08-18T02:29:51;9.90;;;9.40;;
428;SDS011;201;48.758;9.290;2022-08-18T02:32:17;9.10;;;7.63;;
428;SDS011;201;48.758;9.290;2022-08-18T02:34:42;10.43;;;9.90;;
428;SDS011;201;48.758;9.290;2022-08-18T02:37:08;11.07;;;10.20;;
428;SDS011;201;48.758;9.290;2022-08-18T02:39:34;9.83;;;9.33;;
428;SDS011;201;48.758;9.290;2022-08-18T02:42:02;10.70;;;8.93;;
428;SDS011;201;48.758;9.290;2022-08-18T02:44:29;9.83;;;8.17;;
428;SDS011;201;48.758;9.290;2022-08-18T02:46:55;10.87;;;10.27;;
428;SDS011;201;48.758;9.290;2022-08-18T02:49:21;10.40;;;9.90;;
428;SDS011;201;48.758;9.290;2022-08-18T02:51:47;8.23;;;7.83;;
428;SDS011;201;48.758;9.290;2022-08-18T02:54:14;9.63;;;9.10;;
428;SDS011;201;48.758;9.290;2022-08-18T02:56:41;9.30;;;8.80;;
428;SDS011;201;48.758;9.290;2022-08-18T02:59:10;8.07;;;7.67;;
428;SDS011;201;48.758;9.290;2022-08-18T03:01:40;9.03;;;8.53;;
428;SDS011;201;48.758;9.290;2022-08-18T03:04:08;8.30;;;7.90;;
428;SDS011;201;48.758;9.290;2022-08-18T03:06:35;8.47;;;8.00;;
428;SDS011;201;48.758;9.290;2022-08-18T03:09:03;9.00;;;8.50;;
428;SDS011;201;48.758;9.290;2022-08-18T03:11:30;9.83;;;9.17;;
428;SDS011;201;48.758;9.290;2022-08-18T03:13:56;9.60;;;9.10;;
428;SDS011;201;48.758;9.290;2022-08-18T03:16:22;9.90;;;9.40;;
428;SDS011;201;48.758;9.290;2022-08-18T03:18:49;9.37;;;8.87;;
428;SDS011;201;48.758;9.290;2022-08-18T03:21:16;10.33;;;9.57;;
428;SDS011;201;48.758;9.290;2022-08-18T03:23:47;11.93;;;11.33;;
428;SDS011;201;48.758;9.290;2022-08-18T03:26:15;9.57;;;9.07;;
428;SDS011;201;48.758;9.290;2022-08-18T03:28:43;10.93;;;10.33;;
428;SDS011;201;48.758;9.290;2022-08-18T03:31:11;10.53;;;9.97;;
428;SDS011;201;48.758;9.290;2022-08-18T03:33:41;10.57;;;10.00;;
428;SDS011;201;48.758;9.290;2022-08-18T03:36:09;12.10;;;11.50;;
428;SDS011;201;48.758;9.290;2022-08-18T03:38:39;11.27;;;10.67;;
428;SDS011;201;48.758;9.290;2022-08-18T03:41:07;11.47;;;10.83;;
428;SDS011;201;48.758;9.290;2022-08-18T03:43:34;11.43;;;10.87;;
428;SDS011;201;48.758;9.290;2022-08-18T03:46:07;12.10;;;10.47;;
428;SDS011;201;48.758;9.290;2022-08-18T03:48:38;10.70;;;10.10;;
428;SDS011;201;48.758;9.290;2022-08-18T03:51:06;9.53;;;9.03;;
428;SDS011;201;48.758;9.290;2022-08-18T03:53:37;11.80;;;11.20;;
428;SDS011;201;48.758;9.290;2022-08-18T03:56:07;11.47;;;10.87;;
428;SDS011;201;48.758;9.290;2022-08-18T03:58:39;12.53;;;11.73;;
428;SDS011;201;48.758;9.290;2022-08-18T04:01:14;13.40;;;12.70;;
428;SDS011;201;48.758;9.290;2022-08-18T04:03:42;11.23;;;10.60;;
428;SDS011;201;48.758;9.290;2022-08-18T04:06:13;13.10;;;11.27;;
428;SDS011;201;48.758;9.290;2022-08-18T04:08:43;11.57;;;10.77;;
428;SDS011;201;48.758;9.290;2022-08-18T04:11:10;11.70;;;11.10;;
428;SDS011;201;48.758;9.290;2022-08-18T04:13:37;11.40;;;10.80;;
428;SDS011;201;48.758;9.290;2022-08-18T04:16:03;11.60;;;11.00;;
428;SDS011;201;48.758;9.290;2022-08-18T04:18:29;16.53;;;15.73;;
428;SDS011;201;48.758;9.290;2022-08-18T04:20:56;11.80;;;11.20;;
428;SDS011;201;48.758;9.290;2022-08-18T04:23:26;12.17;;;11.33;;
428;SDS011;201;48.758;9.290;2022-08-18T04:25:58;12.83;;;12.13;;
428;SDS011;201;48.758;9.290;2022-08-18T04:28:24;13.83;;;12.17;;
428;SDS011;201;48.758;9.290;2022-08-18T04:30:51;12.67;;;12.00;;
428;SDS011;201;48.758;9.290;2022-08-18T04:33:18;13.73;;;13.03;;
428;SDS011;201;48.758;9.290;2022-08-18T04:35:43;15.10;;;14.30;;
428;SDS011;201;48.758;9.290;2022-08-18T04:38:11;13.73;;;12.50;;
428;SDS011;201;48.758;9.290;2022-08-18T04:40:37;12.93;;;12.23;;
428;SDS011;201;48.758;9.290;2022-08-18T04:43:03;16.67;;;13.27;;
428;SDS011;201;48.758;9.290;2022-08-18T04:45:28;14.07;;;12.73;;
428;SDS011;201;48.758;9.290;2022-08-18T04:47:54;12.60;;;11.97;;
428;SDS011;201;48.758;9.290;2022-08-18T04:50:19;14.57;;;13.87;;
428;SDS011;201;48.758;9.290;2022-08-18T04:52:45;12.90;;;12.20;;
428;SDS011;201;48.758;9.290;2022-08-18T04:55:29;14.07;;;13.37;;
428;SDS011;201;48.758;9.290;2022-08-18T04:57:55;16.10;;;13.60;;
428;SDS011;201;48.758;9.290;2022-08-18T05:00:23;13.10;;;12.20;;
428;SDS011;201;48.758;9.290;2022-08-18T05:02:48;13.60;;;12.90;;
428;SDS011;201;48.758;9.290;2022-08-18T05:05:14;15.47;;;14.60;;
428;SDS011;201;48.758;9.290;2022-08-18T05:07:45;15.40;;;12.97;;
428;SDS011;201;48.758;9.290;2022-08-18T05:10:12;13.53;;;12.83;;
428;SDS011;201;48.758;9.290;2022-08-18T05:12:38;12.87;;;12.20;;
428;SDS011;201;48.758;9.290;2022-08-18T05:15:06;12.90;;;11.00;;
428;SDS011;201;48.758;9.290;2022-08-18T05:17:35;11.97;;;11.37;;
428;SDS011;201;48.758;9.290;2022-08-18T05:20:03;11.50;;;10.90;;
428;SDS011;201;48.758;9.290;2022-08-18T05:22:35;10.67;;;10.10;;
428;SDS011;201;48.758;9.290;2022-08-18T05:25:05;12.93;;;12.23;;
428;SDS011;201;48.758;9.290;2022-08-18T05:27:36;11.43;;;10.83;;
428;SDS011;201;48.758;9.290;2022-08-18T05:30:07;11.77;;;11.17;;
428;SDS011;201;48.758;9.290;2022-08-18T05:32:33;11.33;;;10.73;;
428;SDS011;201;48.758;9.290;2022-08-18T05:35:14;11.10;;;10.50;;
428;SDS011;201;48.758;9.290;2022-08-18T05:37:49;11.40;;;10.80;;
428;SDS011;201;48.758;9.290;2022-08-18T05:40:54;11.33;;;10.73;;
428;SDS011;201;48.758;9.290;2022-08-18T05:43:26;11.10;;;10.50;;
428;SDS011;201;48.758;9.290;2022-08-18T05:45:51;11.90;;;10.80;;
428;SDS011;201;48.758;9.290;2022-08-18T05:48:19;10.73;;;10.13;;
428;SDS011;201;48.758;9.290;2022-08-18T05:50:44;10.20;;;9.70;;
428;SDS011;201;48.758;9.290;2022-08-18T05:53:13;10.37;;;9.87;;
428;SDS011;201;48.758;9.290;2022-08-18T05:55:47;11.20;;;10.17;;
428;SDS011;201;48.758;9.290;2022-08-18T05:58:44;10.43;;;9.50;;
428;SDS011;201;48.758;9.290;2022-08-18T06:01:27;9.80;;;9.30;;
428;SDS011;201;48.758;9.290;2022-08-18T06:04:00;9.53;;;8.97;;
428;SDS011;201;48.758;9.290;2022-08-18T06:06:30;10.70;;;10.10;;
428;SDS011;201;48.758;9.290;2022-08-18T06:09:11;9.43;;;8.93;;
428;SDS011;201;48.758;9.290;2022-08-18T06:11:43;9.80;;;9.30;;
428;SDS011;201;48.758;9.290;2022-08-18T06:14:09;9.80;;;9.30;;
428;SDS011;201;48.758;9.290;2022-08-18T06:24:46;9.93;;;9.43;;
428;SDS011;201;48.758;9.290;2022-08-18T06:28:27;12.60;;;9.63;;
428;SDS011;201;48.758;9.290;2022-08-18T06:30:39;10.63;;;9.10;;
428;SDS011;201;48.758;9.290;2022-08-18T06:41:36;12.80;;;9.53;;
428;SDS011;201;48.758;9.290;2022-08-18T06:46:45;9.40;;;8.67;;
428;SDS011;201;48.758;9.290;2022-08-18T06:49:20;9.20;;;8.47;;
428;SDS011;201;48.758;9.290;2022-08-18T06:51:56;8.90;;;8.40;;
428;SDS011;201;48.758;9.290;2022-08-18T06:54:26;8.97;;;8.50;;
428;SDS011;201;48.758;9.290;2022-08-18T06:56:54;9.20;;;8.70;;
428;SDS011;201;48.758;9.290;2022-08-18T07:02:03;8.80;;;8.30;;
428;SDS011;201;48.758;9.290;2022-08-18T07:04:36;10.63;;;9.37;;
428;SDS011;201;48.758;9.290;2022-08-18T07:07:28;10.37;;;9.87;;
428;SDS011;201;48.758;9.290;2022-08-18T07:10:00;10.27;;;9.33;;
428;SDS011;201;48.758;9.290;2022-08-18T07:12:28;11.13;;;9.60;;
428;SDS011;201;48.758;9.290;2022-08-18T07:14:55;10.30;;;9.80;;
428;SDS011;201;48.758;9.290;2022-08-18T07:17:25;12.83;;;9.70;;
428;SDS011;201;48.758;9.290;2022-08-18T07:22:57;10.60;;;9.60;;
428;SDS011;201;48.758;9.290;2022-08-18T07:25:26;10.47;;;9.77;;
428;SDS011;201;48.758;9.290;2022-08-18T07:27:57;10.13;;;9.63;;
428;SDS011;201;48.758;9.290;2022-08-18T07:30:33;10.20;;;9.40;;
428;SDS011;201;48.758;9.290;2022-08-18T07:35:39;10.10;;;9.60;;
428;SDS011;201;48.758;9.290;2022-08-18T07:38:12;10.40;;;9.27;;
428;SDS011;201;48.758;9.290;2022-08-18T07:40:46;10.10;;;9.60;;
428;SDS011;201;48.758;9.290;2022-08-18T07:43:21;9.03;;;8.53;;
428;SDS011;201;48.758;9.290;2022-08-18T07:45:58;9.50;;;9.00;;
428;SDS011;201;48.758;9.290;2022-08-18T07:48:35;10.70;;;10.07;;
428;SDS011;201;48.758;9.290;2022-08-18T07:53:40;9.57;;;9.07;;
428;SDS011;201;48.758;9.290;2022-08-18T07:56:14;9.20;;;8.70;;
428;SDS011;201;48.758;9.290;2022-08-18T08:04:05;8.80;;;8.30;;
428;SDS011;201;48.758;9.290;2022-08-18T08:06:57;10.93;;;10.00;;
428;SDS011;201;48.758;9.290;2022-08-18T08:09:38;10.13;;;9.23;;
428;SDS011;201;48.758;9.290;2022-08-18T08:12:32;11.80;;;10.17;;
428;SDS011;201;48.758;9.290;2022-08-18T08:20:53;10.97;;;10.33;;
428;SDS011;201;48.758;9.290;2022-08-18T08:23:30;10.13;;;9.63;;
428;SDS011;201;48.758;9.290;2022-08-18T08:34:14;11.90;;;10.30;;
428;SDS011;201;48.758;9.290;2022-08-18T08:36:42;10.27;;;9.80;;
428;SDS011;201;48.758;9.290;2022-08-18T08:39:23;11.20;;;10.60;;
428;SDS011;201;48.758;9.290;2022-08-18T08:42:06;13.90;;;10.00;;
428;SDS011;201;48.758;9.290;2022-08-18T08:44:40;11.13;;;10.53;;
428;SDS011;201;48.758;9.290;2022-08-18T08:47:29;11.00;;;10.20;;
428;SDS011;201;48.758;9.290;2022-08-18T08:50:24;11.03;;;10.43;;
428;SDS011;201;48.758;9.290;2022-08-18T08:56:02;11.13;;;10.57;;
428;SDS011;201;48.758;9.290;2022-08-18T08:58:36;11.27;;;10.67;;
428;SDS011;201;48.758;9.290;2022-08-18T09:01:09;12.53;;;10.43;;
428;SDS011;201;48.758;9.290;2022-08-18T09:03:52;11.20;;;10.20;;
428;SDS011;201;48.758;9.290;2022-08-18T09:06:45;11.67;;;10.50;;
428;SDS011;201;48.758;9.290;2022-08-18T09:18:21;12.83;;;9.57;;
428;SDS011;201;48.758;9.290;2022-08-18T09:41:46;7.30;;;6.90;;
428;SDS011;201;48.758;9.290;2022-08-18T09:47:00;7.47;;;7.07;;
428;SDS011;201;48.758;9.290;2022-08-18T09:54:22;9.73;;;8.20;;
428;SDS011;201;48.758;9.290;2022-08-18T10:02:12;8.70;;;8.20;;
428;SDS011;201;48.758;9.290;2022-08-18T10:10:46;8.87;;;8.37;;
428;SDS011;201;48.758;9.290;2022-08-18T10:23:57;9.63;;;9.13;;
428;SDS011;201;48.758;9.290;2022-08-18T10:31:31;11.40;;;8.23;;
428;SDS011;201;48.758;9.290;2022-08-18T10:37:34;9.60;;;9.10;;
428;SDS011;201;48.758;9.290;2022-08-18T10:42:38;10.97;;;10.37;;
428;SDS011;201;48.758;9.290;2022-08-18T10:45:13;10.53;;;9.97;;
428;SDS011;201;48.758;9.290;2022-08-18T10:47:39;10.10;;;9.60;;
428;SDS011;201;48.758;9.290;2022-08-18T10:50:18;9.73;;;8.33;;
428;SDS011;201;48.758;9.290;2022-08-18T10:52:57;9.37;;;8.33;;
428;SDS011;201;48.758;9.290;2022-08-18T11:04:23;8.97;;;8.47;;
428;SDS011;201;48.758;9.290;2022-08-18T11:06:50;8.20;;;7.80;;
428;SDS011;201;48.758;9.290;2022-08-18T11:09:26;9.50;;;9.00;;
428;SDS011;201;48.758;9.290;2022-08-18T11:11:53;9.73;;;9.23;;
428;SDS011;201;48.758;9.290;2022-08-18T11:19:27;9.97;;;9.47;;
428;SDS011;201;48.758;9.290;2022-08-18T11:22:02;9.60;;;8.93;;
428;SDS011;201;48.758;9.290;2022-08-18T11:24:28;9.17;;;8.67;;
428;SDS011;201;48.758;9.290;2022-08-18T11:27:03;9.23;;;8.73;;
428;SDS011;201;48.758;9.290;2022-08-18T11:29:40;9.27;;;8.77;;
428;SDS011;201;48.758;9.290;2022-08-18T11:35:20;13.73;;;10.90;;
428;SDS011;201;48.758;9.290;2022-08-18T11:37:54;10.57;;;10.00;;
428;SDS011;201;48.758;9.290;2022-08-18T11:43:04;10.83;;;10.23;;
428;SDS011;201;48.758;9.290;2022-08-18T11:48:16;11.60;;;11.00;;
428;SDS011;201;48.758;9.290;2022-08-18T11:51:02;11.70;;;11.10;;
428;SDS011;201;48.758;9.290;2022-08-18T11:53:39;12.53;;;11.27;;
428;SDS011;201;48.758;9.290;2022-08-18T11:56:35;10.43;;;9.90;;
428;SDS011;201;48.758;9.290;2022-08-18T12:01:56;10.73;;;10.13;;
428;SDS011;201;48.758;9.290;2022-08-18T12:12:14;11.50;;;10.70;;
428;SDS011;201;48.758;9.290;2022-08-18T12:14:59;10.70;;;10.10;;
428;SDS011;201;48.758;9.290;2022-08-18T12:17:36;10.00;;;9.50;;
428;SDS011;201;48.758;9.290;2022-08-18T12:20:03;12.13;;;8.77;;
428;SDS011;201;48.758;9.290;2022-08-18T12:22:32;11.17;;;8.90;;
428;SDS011;201;48.758;9.290;2022-08-18T12:24:59;16.07;;;9.50;;
428;SDS011;201;48.758;9.290;2022-08-18T12:27:26;11.00;;;8.10;;
428;SDS011;201;48.758;9.290;2022-08-18T12:29:54;9.57;;;9.07;;
428;SDS011;201;48.758;9.290;2022-08-18T12:32:20;10.70;;;10.10;;
428;SDS011;201;48.758;9.290;2022-08-18T12:34:47;9.93;;;9.27;;
428;SDS011;201;48.758;9.290;2022-08-18T12:37:14;10.43;;;9.43;;
428;SDS011;201;48.758;9.290;2022-08-18T12:39:42;13.17;;;8.80;;
428;SDS011;201;48.758;9.290;2022-08-18T12:42:08;9.87;;;9.20;;
428;SDS011;201;48.758;9.290;2022-08-18T12:44:35;9.43;;;8.93;;
428;SDS011;201;48.758;9.290;2022-08-18T12:47:01;8.83;;;8.33;;
428;SDS011;201;48.758;9.290;2022-08-18T12:49:29;8.77;;;8.27;;
428;SDS011;201;48.758;9.290;2022-08-18T12:51:55;12.00;;;10.30;;
428;SDS011;201;48.758;9.290;2022-08-18T12:54:20;9.37;;;8.80;;
428;SDS011;201;48.758;9.290;2022-08-18T12:56:51;9.70;;;9.20;;
428;SDS011;201;48.758;9.290;2022-08-18T12:59:18;14.23;;;9.40;;
428;SDS011;201;48.758;9.290;2022-08-18T13:01:44;10.07;;;9.40;;
428;SDS011;201;48.758;9.290;2022-08-18T13:04:10;8.57;;;8.10;;
428;SDS011;201;48.758;9.290;2022-08-18T13:06:37;15.13;;;10.63;;
428;SDS011;201;48.758;9.290;2022-08-18T13:09:05;11.00;;;8.70;;
428;SDS011;201;48.758;9.290;2022-08-18T13:11:31;9.60;;;9.10;;
428;SDS011;201;48.758;9.290;2022-08-18T13:13:56;9.60;;;9.10;;
428;SDS011;201;48.758;9.290;2022-08-18T13:16:23;9.60;;;9.10;;
428;SDS011;201;48.758;9.290;2022-08-18T13:18:49;9.27;;;8.77;;
428;SDS011;201;48.758;9.290;2022-08-18T13:21:15;13.50;;;9.50;;
428;SDS011;201;48.758;9.290;2022-08-18T13:23:42;9.47;;;8.97;;
428;SDS011;201;48.758;9.290;2022-08-18T13:26:10;9.97;;;9.47;;
428;SDS011;201;48.758;9.290;2022-08-18T13:28:45;9.83;;;8.87;;
428;SDS011;201;48.758;9.290;2022-08-18T13:31:11;10.03;;;9.20;;
428;SDS011;201;48.758;9.290;2022-08-18T13:33:36;9.40;;;8.83;;
428;SDS011;201;48.758;9.290;2022-08-18T13:36:04;9.10;;;8.60;;
428;SDS011;201;48.758;9.290;2022-08-18T13:38:29;12.07;;;8.90;;
428;SDS011;201;48.758;9.290;2022-08-18T13:40:56;10.80;;;8.50;;
428;SDS011;201;48.758;9.290;2022-08-18T13:43:26;7.73;;;7.33;;
428;SDS011;201;48.758;9.290;2022-08-18T13:45:56;7.80;;;7.40;;
428;SDS011;201;48.758;9.290;2022-08-18T13:48:22;7.60;;;7.20;;
428;SDS011;201;48.758;9.290;2022-08-18T13:50:49;9.20;;;8.47;;
428;SDS011;201;48.758;9.290;2022-08-18T13:53:16;19.47;;;8.13;;
428;SDS011;201;48.758;9.290;2022-08-18T13:55:43;8.50;;;8.00;;
428;SDS011;201;48.758;9.290;2022-08-18T13:58:10;8.70;;;8.20;;
428;SDS011;201;48.758;9.290;2022-08-18T14:00:37;7.70;;;7.30;;
428;SDS011;201;48.758;9.290;2022-08-18T14:03:03;7.73;;;7.33;;
428;SDS011;201;48.758;9.290;2022-08-18T14:05:33;7.33;;;6.93;;
428;SDS011;201;48.758;9.290;2022-08-18T14:07:59;8.03;;;7.63;;
428;SDS011;201;48.758;9.290;2022-08-18T14:10:25;8.93;;;7.77;;
428;SDS011;201;48.758;9.290;2022-08-18T14:12:52;11.10;;;8.17;;
428;SDS011;201;48.758;9.290;2022-08-18T14:15:20;8.03;;;7.63;;
428;SDS011;201;48.758;9.290;2022-08-18T14:17:46;7.30;;;6.90;;
428;SDS011;201;48.758;9.290;2022-08-18T14:20:13;7.23;;;6.83;;
428;SDS011;201;48.758;9.290;2022-08-18T14:22:58;7.77;;;7.00;;
428;SDS011;201;48.758;9.290;2022-08-18T14:25:43;7.00;;;6.60;;
428;SDS011;201;48.758;9.290;2022-08-18T14:28:28;6.50;;;6.10;;
428;SDS011;201;48.758;9.290;2022-08-18T14:30:55;7.77;;;6.73;;
428;SDS011;201;48.758;9.290;2022-08-18T14:33:23;8.17;;;7.80;;
428;SDS011;201;48.758;9.290;2022-08-18T14:35:50;10.77;;;7.20;;
428;SDS011;201;48.758;9.290;2022-08-18T14:38:15;7.70;;;7.30;;
428;SDS011;201;48.758;9.290;2022-08-18T14:40:42;7.43;;;7.03;;
428;SDS011;201;48.758;9.290;2022-08-18T14:43:09;7.67;;;7.17;;
428;SDS011;201;48.758;9.290;2022-08-18T14:45:37;7.20;;;6.80;;
428;SDS011;201;48.758;9.290;2022-08-18T14:48:04;8.20;;;7.80;;
428;SDS011;201;48.758;9.290;2022-08-18T14:50:31;7.80;;;7.40;;
428;SDS011;201;48.758;9.290;2022-08-18T14:52:56;7.80;;;7.40;;
428;SDS011;201;48.758;9.290;2022-08-18T14:55:22;7.00;;;6.60;;
428;SDS011;201;48.758;9.290;2022-08-18T14:57:48;7.90;;;6.67;;
428;SDS011;201;48.758;9.290;2022-08-18T15:00:16;8.43;;;7.27;;
428;SDS011;201;48.758;9.290;2022-08-18T15:02:45;8.00;;;7.30;;
428;SDS011;201;48.758;9.290;2022-08-18T15:05:13;6.60;;;6.20;;
428;SDS011;201;48.758;9.290;2022-08-18T15:07:39;6.50;;;6.10;;
428;SDS011;201;48.758;9.290;2022-08-18T15:10:05;7.40;;;7.00;;
428;SDS011;201;48.758;9.290;2022-08-18T15:12:36;6.27;;;5.93;;
428;SDS011;201;48.758;9.290;2022-08-18T15:15:02;7.07;;;6.67;;
428;SDS011;201;48.758;9.290;2022-08-18T15:17:29;7.17;;;6.53;;
428;SDS011;201;48.758;9.290;2022-08-18T15:19:55;7.60;;;7.20;;
428;SDS011;201;48.758;9.290;2022-08-18T15:22:21;7.20;;;6.80;;
428;SDS011;201;48.758;9.290;2022-08-18T15:25:07;8.13;;;7.73;;
428;SDS011;201;48.758;9.290;2022-08-18T15:27:52;7.50;;;7.10;;
428;SDS011;201;48.758;9.290;2022-08-18T15:30:17;7.63;;;7.27;;
428;SDS011;201;48.758;9.290;2022-08-18T15:32:44;7.63;;;7.23;;
428;SDS011;201;48.758;9.290;2022-08-18T15:35:11;7.73;;;7.17;;
428;SDS011;201;48.758;9.290;2022-08-18T15:37:40;8.17;;;7.77;;
428;SDS011;201;48.758;9.290;2022-08-18T15:40:09;7.93;;;7.53;;
428;SDS011;201;48.758;9.290;2022-08-18T15:42:44;7.93;;;6.53;;
428;SDS011;201;48.758;9.290;2022-08-18T15:45:19;7.20;;;6.80;;
428;SDS011;201;48.758;9.290;2022-08-18T15:47:49;7.83;;;7.43;;
428;SDS011;201;48.758;9.290;2022-08-18T15:50:14;11.60;;;7.57;;
428;SDS011;201;48.758;9.290;2022-08-18T15:52:47;7.43;;;7.00;;
428;SDS011;201;48.758;9.290;2022-08-18T15:55:15;7.50;;;6.80;;
428;SDS011;201;48.758;9.290;2022-08-18T15:57:42;7.13;;;6.67;;
428;SDS011;201;48.758;9.290;2022-08-18T16:00:08;7.60;;;7.20;;
428;SDS011;201;48.758;9.290;2022-08-18T16:02:35;7.77;;;7.37;;
428;SDS011;201;48.758;9.290;2022-08-18T16:05:03;7.77;;;7.37;;
428;SDS011;201;48.758;9.290;2022-08-18T16:07:29;9.43;;;7.37;;
428;SDS011;201;48.758;9.290;2022-08-18T16:09:55;7.30;;;6.90;;
428;SDS011;201;48.758;9.290;2022-08-18T16:12:20;18.17;;;8.40;;
428;SDS011;201;48.758;9.290;2022-08-18T16:14:46;7.27;;;6.87;;
428;SDS011;201;48.758;9.290;2022-08-18T16:17:11;7.50;;;7.10;;
428;SDS011;201;48.758;9.290;2022-08-18T16:19:38;8.67;;;8.17;;
428;SDS011;201;48.758;9.290;2022-08-18T16:22:04;7.60;;;6.97;;
428;SDS011;201;48.758;9.290;2022-08-18T16:24:31;9.30;;;7.43;;
428;SDS011;201;48.758;9.290;2022-08-18T16:26:57;9.43;;;7.20;;
428;SDS011;201;48.758;9.290;2022-08-18T16:29:22;10.20;;;8.60;;
428;SDS011;201;48.758;9.290;2022-08-18T16:31:48;8.87;;;8.37;;
428;SDS011;201;48.758;9.290;2022-08-18T16:34:15;8.00;;;7.60;;
428;SDS011;201;48.758;9.290;2022-08-18T16:36:40;8.03;;;6.93;;
428;SDS011;201;48.758;9.290;2022-08-18T16:39:06;8.33;;;7.90;;
428;SDS011;201;48.758;9.290;2022-08-18T16:41:32;8.00;;;7.60;;
428;SDS011;201;48.758;9.290;2022-08-18T16:43:57;6.80;;;6.40;;
428;SDS011;201;48.758;9.290;2022-08-18T16:46:24;9.50;;;7.87;;
428;SDS011;201;48.758;9.290;2022-08-18T16:48:52;8.07;;;7.67;;
428;SDS011;201;48.758;9.290;2022-08-18T16:51:21;7.53;;;7.13;;
428;SDS011;201;48.758;9.290;2022-08-18T16:53:48;8.20;;;7.80;;
428;SDS011;201;48.758;9.290;2022-08-18T16:56:18;7.60;;;7.00;;
428;SDS011;201;48.758;9.290;2022-08-18T16:58:46;7.60;;;7.20;;
428;SDS011;201;48.758;9.290;2022-08-18T17:01:30;7.57;;;7.17;;
428;SDS011;201;48.758;9.290;2022-08-18T17:04:15;7.17;;;6.80;;
428;SDS011;201;48.758;9.290;2022-08-18T17:06:44;8.23;;;7.33;;
428;SDS011;201;48.758;9.290;2022-08-18T17:09:09;7.70;;;7.30;;
428;SDS011;201;48.758;9.290;2022-08-18T17:11:36;7.03;;;6.63;;
428;SDS011;201;48.758;9.290;2022-08-18T17:14:03;8.60;;;8.10;;
428;SDS011;201;48.758;9.290;2022-08-18T17:16:31;8.57;;;8.07;;
428;SDS011;201;48.758;9.290;2022-08-18T17:18:57;16.03;;;10.20;;
428;SDS011;201;48.758;9.290;2022-08-18T17:21:25;16.17;;;13.40;;
428;SDS011;201;48.758;9.290;2022-08-18T17:23:53;14.00;;;13.30;;
428;SDS011;201;48.758;9.290;2022-08-18T17:28:53;12.30;;;11.70;;
428;SDS011;201;48.758;9.290;2022-08-18T17:31:28;9.67;;;8.80;;
428;SDS011;201;48.758;9.290;2022-08-18T17:33:56;10.17;;;9.67;;
428;SDS011;201;48.758;9.290;2022-08-18T17:36:33;9.67;;;8.70;;
428;SDS011;201;48.758;9.290;2022-08-18T17:39:17;9.40;;;8.90;;
428;SDS011;201;48.758;9.290;2022-08-18T17:41:48;9.20;;;8.70;;
428;SDS011;201;48.758;9.290;2022-08-18T17:44:32;9.30;;;8.80;;
428;SDS011;201;48.758;9.290;2022-08-18T17:46:59;9.70;;;9.20;;
428;SDS011;201;48.758;9.290;2022-08-18T17:49:30;12.47;;;11.83;;
428;SDS011;201;48.758;9.290;2022-08-18T17:52:25;9.83;;;9.10;;
428;SDS011;201;48.758;9.290;2022-08-18T17:54:59;12.73;;;9.30;;
428;SDS011;201;48.758;9.290;2022-08-18T17:57:31;9.73;;;9.23;;
428;SDS011;201;48.758;9.290;2022-08-18T18:00:03;10.40;;;8.40;;
428;SDS011;201;48.758;9.290;2022-08-18T18:02:33;9.37;;;8.77;;
428;SDS011;201;48.758;9.290;2022-08-18T18:05:00;9.17;;;8.67;;
428;SDS011;201;48.758;9.290;2022-08-18T18:07:30;10.90;;;10.30;;
428;SDS011;201;48.758;9.290;2022-08-18T18:10:01;8.47;;;8.00;;
428;SDS011;201;48.758;9.290;2022-08-18T18:12:29;9.37;;;8.87;;
428;SDS011;201;48.758;9.290;2022-08-18T18:14:57;10.20;;;9.70;;
428;SDS011;201;48.758;9.290;2022-08-18T18:17:27;10.20;;;9.70;;
428;SDS011;201;48.758;9.290;2022-08-18T18:22:49;11.33;;;10.73;;
428;SDS011;201;48.758;9.290;2022-08-18T18:25:28;12.33;;;11.73;;
428;SDS011;201;48.758;9.290;2022-08-18T18:27:56;12.13;;;11.53;;
428;SDS011;201;48.758;9.290;2022-08-18T18:30:22;11.93;;;11.17;;
428;SDS011;201;48.758;9.290;2022-08-18T18:33:01;13.10;;;12.40;;
428;SDS011;201;48.758;9.290;2022-08-18T18:35:46;12.17;;;11.57;;
428;SDS011;201;48.758;9.290;2022-08-18T18:41:00;14.30;;;13.60;;
428;SDS011;201;48.758;9.290;2022-08-18T18:43:35;13.97;;;13.27;;
428;SDS011;201;48.758;9.290;2022-08-18T18:56:59;13.70;;;13.00;;